createdAt,value
2019-04-25T00:00:07.702Z,15.59
2019-04-25T00:01:07.724Z,15.62
2019-04-25T00:02:07.744Z,15.66
2019-04-25T00:03:07.769Z,15.66
2019-04-25T00:04:07.785Z,15.66
2019-04-25T00:05:07.823Z,15.69
2019-04-25T00:06:07.896Z,15.69
2019-04-25T00:07:07.892Z,15.66
2019-04-25T00:08:07.901Z,15.75
2019-04-25T00:09:07.952Z,15.69
2019-04-25T00:10:07.946Z,15.80
2019-04-25T00:11:07.954Z,15.78
2019-04-25T00:12:07.955Z,15.76
2019-04-25T00:13:07.976Z,15.81
2019-04-25T00:14:07.993Z,15.78
2019-04-25T00:15:08.014Z,15.83
2019-04-25T00:16:08.036Z,15.78
2019-04-25T00:17:08.058Z,15.76
2019-04-25T00:18:08.075Z,15.76
2019-04-25T00:19:08.097Z,15.78
2019-04-25T00:20:08.128Z,15.72
2019-04-25T00:21:08.138Z,15.66
2019-04-25T00:22:08.159Z,15.66
2019-04-25T00:23:08.181Z,15.66
2019-04-25T00:24:08.200Z,15.55
2019-04-25T00:25:15.900Z,15.63
2019-04-25T00:26:08.242Z,15.47
2019-04-25T00:27:08.264Z,15.43
2019-04-25T00:28:08.282Z,15.44
2019-04-25T00:29:08.306Z,15.32
2019-04-25T00:30:08.322Z,15.32
2019-04-25T00:31:08.344Z,15.27
2019-04-25T00:32:08.367Z,15.22
2019-04-25T00:33:08.386Z,15.10
2019-04-25T00:34:08.406Z,15.04
2019-04-25T00:35:08.426Z,15.05
2019-04-25T00:36:08.445Z,15.05
2019-04-25T00:37:08.467Z,15.02
2019-04-25T00:38:08.487Z,14.99
2019-04-25T00:39:08.508Z,14.99
2019-04-25T00:40:08.527Z,14.96
2019-04-25T00:41:08.547Z,14.94
2019-04-25T00:42:08.566Z,14.85
2019-04-25T00:43:08.590Z,14.85
2019-04-25T00:44:08.607Z,14.78
2019-04-25T00:45:08.632Z,14.79
2019-04-25T00:46:08.650Z,14.82
2019-04-25T00:47:08.669Z,14.77
2019-04-25T00:48:08.686Z,14.71
2019-04-25T00:49:08.710Z,14.66
2019-04-25T00:50:08.732Z,14.62
2019-04-25T00:51:08.750Z,14.58
2019-04-25T00:52:08.769Z,14.55
2019-04-25T00:53:08.790Z,14.55
2019-04-25T00:54:08.810Z,14.48
2019-04-25T00:55:08.829Z,14.55
2019-04-25T00:56:08.850Z,14.52
2019-04-25T00:57:08.873Z,14.44
2019-04-25T00:58:08.890Z,14.43
2019-04-25T00:59:08.911Z,14.31
2019-04-25T01:00:08.931Z,14.34
2019-04-25T01:01:08.951Z,14.40
2019-04-25T01:02:08.971Z,14.33
2019-04-25T01:03:08.989Z,14.13
2019-04-25T01:04:09.011Z,14.28
2019-04-25T01:05:09.030Z,14.23
2019-04-25T01:06:09.052Z,14.18
2019-04-25T01:07:09.071Z,14.08
2019-04-25T01:08:09.090Z,14.03
2019-04-25T01:09:09.109Z,14.05
2019-04-25T01:10:09.131Z,14.04
2019-04-25T01:11:09.149Z,13.93
2019-04-25T01:12:09.170Z,14.00
2019-04-25T01:13:09.191Z,13.94
2019-04-25T01:14:09.210Z,13.93
2019-04-25T01:15:09.231Z,13.80
2019-04-25T01:16:09.250Z,13.89
2019-04-25T01:17:09.270Z,13.93
2019-04-25T01:18:09.290Z,13.86
2019-04-25T01:19:09.310Z,13.83
2019-04-25T01:20:09.330Z,13.93
2019-04-25T01:21:09.351Z,13.80
2019-04-25T01:22:09.371Z,13.82
2019-04-25T01:23:09.392Z,13.82
2019-04-25T01:24:09.411Z,13.79
2019-04-25T01:25:09.429Z,13.79
2019-04-25T01:26:09.450Z,13.82
2019-04-25T01:27:09.470Z,13.79
2019-04-25T01:28:09.492Z,13.80
2019-04-25T01:29:09.508Z,13.80
2019-04-25T01:30:09.526Z,13.78
2019-04-25T01:31:09.552Z,13.80
2019-04-25T01:32:09.567Z,13.82
2019-04-25T01:33:09.587Z,13.73
2019-04-25T01:34:09.606Z,13.82
2019-04-25T01:35:09.627Z,13.76
2019-04-25T01:36:09.648Z,13.78
2019-04-25T01:37:09.673Z,13.70
2019-04-25T01:38:09.691Z,13.76
2019-04-25T01:39:09.771Z,13.82
2019-04-25T01:40:09.777Z,13.86
2019-04-25T01:41:09.781Z,13.80
2019-04-25T01:42:09.840Z,13.75
2019-04-25T01:43:09.852Z,13.79
2019-04-25T01:44:09.830Z,13.85
2019-04-25T01:45:09.829Z,13.85
2019-04-25T01:46:09.843Z,13.79
2019-04-25T01:47:09.865Z,13.87
2019-04-25T01:48:09.884Z,13.79
2019-04-25T01:49:09.902Z,13.82
2019-04-25T01:50:09.924Z,13.87
2019-04-25T01:51:09.947Z,13.87
2019-04-25T01:52:09.964Z,13.87
2019-04-25T01:53:09.982Z,13.91
2019-04-25T01:54:10.003Z,13.89
2019-04-25T01:55:10.022Z,13.87
2019-04-25T01:56:10.060Z,13.86
2019-04-25T01:57:10.062Z,13.87
2019-04-25T01:58:10.080Z,13.83
2019-04-25T01:59:10.100Z,13.89
2019-04-25T02:00:10.120Z,13.93
2019-04-25T02:01:10.145Z,13.85
2019-04-25T02:02:10.182Z,13.87
2019-04-25T02:03:10.180Z,13.91
2019-04-25T02:04:10.200Z,13.94
2019-04-25T02:05:10.223Z,13.97
2019-04-25T02:06:10.241Z,13.97
2019-04-25T02:07:10.262Z,13.94
2019-04-25T02:08:10.281Z,13.95
2019-04-25T02:09:10.301Z,13.95
2019-04-25T02:10:10.324Z,13.93
2019-04-25T02:11:10.341Z,14.03
2019-04-25T02:12:10.364Z,14.00
2019-04-25T02:13:10.380Z,14.03
2019-04-25T02:14:10.404Z,14.07
2019-04-25T02:15:10.422Z,14.13
2019-04-25T02:16:10.439Z,14.04
2019-04-25T02:17:10.461Z,14.13
2019-04-25T02:18:10.480Z,14.08
2019-04-25T02:19:10.501Z,14.11
2019-04-25T02:20:10.520Z,14.15
2019-04-25T02:21:10.540Z,14.19
2019-04-25T02:22:10.561Z,14.15
2019-04-25T02:23:10.579Z,14.18
2019-04-25T02:24:10.600Z,14.18
2019-04-25T02:25:10.621Z,14.08
2019-04-25T02:26:16.023Z,14.16
2019-04-25T02:27:10.660Z,14.18
2019-04-25T02:28:10.682Z,14.20
2019-04-25T02:29:10.701Z,14.18
2019-04-25T02:30:10.723Z,14.20
2019-04-25T02:31:10.740Z,14.22
2019-04-25T02:32:10.760Z,14.19
2019-04-25T02:33:10.782Z,14.22
2019-04-25T02:34:10.803Z,14.16
2019-04-25T02:35:10.837Z,14.23
2019-04-25T02:36:10.841Z,14.22
2019-04-25T02:37:10.886Z,14.18
2019-04-25T02:38:10.882Z,14.23
2019-04-25T02:39:10.902Z,14.26
2019-04-25T02:40:10.921Z,14.22
2019-04-25T02:41:10.941Z,14.18
2019-04-25T02:42:10.963Z,14.18
2019-04-25T02:43:10.980Z,14.20
2019-04-25T02:44:11.001Z,14.23
2019-04-25T02:45:11.021Z,14.22
2019-04-25T02:46:11.041Z,14.19
2019-04-25T02:47:11.058Z,14.19
2019-04-25T02:48:11.082Z,14.19
2019-04-25T02:49:19.734Z,14.22
2019-04-25T02:50:11.119Z,14.15
2019-04-25T02:51:11.139Z,14.12
2019-04-25T02:52:13.146Z,14.15
2019-04-25T02:53:11.180Z,14.11
2019-04-25T02:54:11.201Z,14.08
2019-04-25T02:55:15.999Z,14.16
2019-04-25T02:56:27.377Z,14.13
2019-04-25T02:57:11.259Z,14.11
2019-04-25T02:58:11.280Z,14.13
2019-04-25T02:59:11.307Z,14.12
2019-04-25T03:00:11.316Z,14.19
2019-04-25T03:01:19.389Z,14.19
2019-04-25T03:02:11.359Z,14.20
2019-04-25T03:03:11.395Z,14.19
2019-04-25T03:04:11.533Z,14.13
2019-04-25T03:05:11.453Z,14.18
2019-04-25T03:06:11.442Z,14.23
2019-04-25T03:07:11.623Z,14.18
2019-04-25T03:08:11.502Z,14.16
2019-04-25T03:09:11.500Z,14.22
2019-04-25T03:10:11.604Z,14.13
2019-04-25T03:11:11.557Z,14.23
2019-04-25T03:12:25.391Z,14.25
2019-04-25T03:13:12.563Z,14.25
2019-04-25T03:14:11.656Z,14.28
2019-04-25T03:15:11.661Z,14.20
2019-04-25T03:16:13.757Z,14.36
2019-04-25T03:17:14.003Z,14.23
2019-04-25T03:18:14.572Z,14.23
2019-04-25T03:19:13.974Z,14.28
2019-04-25T03:20:12.672Z,14.30
2019-04-25T03:21:14.155Z,14.40
2019-04-25T03:22:11.932Z,14.34
2019-04-25T03:23:14.218Z,14.33
2019-04-25T03:24:13.937Z,14.40
2019-04-25T03:25:16.475Z,14.38
2019-04-25T03:26:13.389Z,14.48
2019-04-25T03:27:11.858Z,14.34
2019-04-25T03:28:13.483Z,14.36
2019-04-25T03:29:13.530Z,14.43
2019-04-25T03:30:14.074Z,14.49
2019-04-25T03:31:18.630Z,14.37
2019-04-25T03:32:14.314Z,14.48
2019-04-25T03:33:16.113Z,14.44
2019-04-25T03:34:16.063Z,14.43
2019-04-25T03:35:13.378Z,14.44
2019-04-25T03:36:13.699Z,14.44
2019-04-25T03:37:13.626Z,14.41
2019-04-25T03:38:12.724Z,14.44
2019-04-25T03:39:14.404Z,14.40
2019-04-25T03:40:13.840Z,14.51
2019-04-25T03:41:13.205Z,14.43
2019-04-25T03:42:12.152Z,14.49
2019-04-25T03:43:12.177Z,14.44
2019-04-25T03:44:13.840Z,14.48
2019-04-25T03:45:13.764Z,14.30
2019-04-25T03:46:14.117Z,14.34
2019-04-25T03:47:13.444Z,14.34
2019-04-25T03:48:13.882Z,14.31
2019-04-25T03:49:13.526Z,14.34
2019-04-25T03:50:13.829Z,14.33
2019-04-25T03:51:14.227Z,14.28
2019-04-25T03:52:14.086Z,14.22
2019-04-25T03:53:13.618Z,14.25
2019-04-25T03:54:14.097Z,14.20
2019-04-25T03:55:12.464Z,14.12
2019-04-25T03:56:12.966Z,14.19
2019-04-25T03:57:14.475Z,14.19
2019-04-25T03:58:13.117Z,14.11
2019-04-25T03:59:14.225Z,14.11
2019-04-25T04:00:14.505Z,14.04
2019-04-25T04:01:13.245Z,14.07
2019-04-25T04:02:13.533Z,14.05
2019-04-25T04:03:14.233Z,14.00
2019-04-25T04:04:14.368Z,14.03
2019-04-25T04:05:13.900Z,13.97
2019-04-25T04:06:14.194Z,13.98
2019-04-25T04:07:14.303Z,13.94
2019-04-25T04:08:14.479Z,13.87
2019-04-25T04:09:13.917Z,13.86
2019-04-25T04:10:14.214Z,13.87
2019-04-25T04:11:14.159Z,13.86
2019-04-25T04:12:14.482Z,13.80
2019-04-25T04:13:14.191Z,13.85
2019-04-25T04:14:14.499Z,13.82
2019-04-25T04:15:14.396Z,13.86
2019-04-25T04:16:14.295Z,13.73
2019-04-25T04:17:14.432Z,13.79
2019-04-25T04:18:16.282Z,13.67
2019-04-25T04:19:14.419Z,13.62
2019-04-25T04:20:14.705Z,13.71
2019-04-25T04:21:13.583Z,13.67
2019-04-25T04:22:15.023Z,13.60
2019-04-25T04:23:13.498Z,13.54
2019-04-25T04:24:14.124Z,13.54
2019-04-25T04:25:13.876Z,13.57
2019-04-25T04:26:13.673Z,13.54
2019-04-25T04:27:14.490Z,13.43
2019-04-25T04:28:14.072Z,13.49
2019-04-25T04:29:14.121Z,13.43
2019-04-25T04:30:14.476Z,13.40
2019-04-25T04:31:14.340Z,13.39
2019-04-25T04:32:14.386Z,13.45
2019-04-25T04:33:25.991Z,13.40
2019-04-25T04:34:14.689Z,13.33
2019-04-25T04:35:14.444Z,13.33
2019-04-25T04:36:15.032Z,13.30
2019-04-25T04:37:14.629Z,13.30
2019-04-25T04:38:14.425Z,13.23
2019-04-25T04:39:14.206Z,13.24
2019-04-25T04:40:15.824Z,13.24
2019-04-25T04:41:14.230Z,13.24
2019-04-25T04:42:13.990Z,13.23
2019-04-25T04:43:15.283Z,13.16
2019-04-25T04:44:14.327Z,13.13
2019-04-25T04:45:14.317Z,13.13
2019-04-25T04:46:14.168Z,13.23
2019-04-25T04:47:14.420Z,13.21
2019-04-25T04:48:14.511Z,13.20
2019-04-25T04:49:14.456Z,13.17
2019-04-25T04:50:14.498Z,13.20
2019-04-25T04:51:14.875Z,13.16
2019-04-25T04:52:14.700Z,13.13
2019-04-25T04:53:15.716Z,13.06
2019-04-25T04:54:14.366Z,13.01
2019-04-25T04:55:15.761Z,13.13
2019-04-25T04:56:15.056Z,13.17
2019-04-25T04:57:22.105Z,13.08
2019-04-25T04:58:15.038Z,13.01
2019-04-25T04:59:14.640Z,13.06
2019-04-25T05:00:14.590Z,12.99
2019-04-25T05:01:14.777Z,13.03
2019-04-25T05:02:15.789Z,13.02
2019-04-25T05:03:14.889Z,13.01
2019-04-25T05:04:14.937Z,12.91
2019-04-25T05:05:14.565Z,12.99
2019-04-25T05:06:15.012Z,12.95
2019-04-25T05:07:14.973Z,12.95
2019-04-25T05:08:14.991Z,12.94
2019-04-25T05:09:15.200Z,12.94
2019-04-25T05:10:16.522Z,12.95
2019-04-25T05:11:15.441Z,12.99
2019-04-25T05:12:15.251Z,12.99
2019-04-25T05:13:15.248Z,12.99
2019-04-25T05:14:14.905Z,13.03
2019-04-25T05:15:15.322Z,12.91
2019-04-25T05:16:15.066Z,12.94
2019-04-25T05:17:15.166Z,12.99
2019-04-25T05:18:15.624Z,12.90
2019-04-25T05:19:15.477Z,12.98
2019-04-25T05:20:16.015Z,12.99
2019-04-25T05:21:15.694Z,13.03
2019-04-25T05:22:14.919Z,13.03
2019-04-25T05:23:15.086Z,13.01
2019-04-25T05:24:16.008Z,13.01
2019-04-25T05:25:16.260Z,13.12
2019-04-25T05:26:15.929Z,13.05
2019-04-25T05:27:15.380Z,13.06
2019-04-25T05:28:16.170Z,13.19
2019-04-25T05:29:17.478Z,13.13
2019-04-25T05:30:15.716Z,13.20
2019-04-25T05:31:15.749Z,13.30
2019-04-25T05:32:15.776Z,13.24
2019-04-25T05:33:17.591Z,13.19
2019-04-25T05:34:15.722Z,13.37
2019-04-25T05:35:15.016Z,13.31
2019-04-25T05:36:15.488Z,13.42
2019-04-25T05:37:15.151Z,13.43
2019-04-25T05:38:15.096Z,13.55
2019-04-25T05:39:16.711Z,13.50
2019-04-25T05:40:15.816Z,13.58
2019-04-25T05:41:15.654Z,13.73
2019-04-25T05:42:16.277Z,13.64
2019-04-25T05:43:15.085Z,13.73
2019-04-25T05:44:15.705Z,13.83
2019-04-25T05:45:16.030Z,13.91
2019-04-25T05:46:15.293Z,13.80
2019-04-25T05:47:15.898Z,13.98
2019-04-25T05:48:15.964Z,14.13
2019-04-25T05:49:15.492Z,14.18
2019-04-25T05:50:15.639Z,14.23
2019-04-25T05:51:15.778Z,14.31
2019-04-25T05:52:15.970Z,14.45
2019-04-25T05:53:16.164Z,14.58
2019-04-25T05:54:14.740Z,14.61
2019-04-25T05:55:17.542Z,14.73
2019-04-25T05:56:14.780Z,14.71
2019-04-25T05:57:14.800Z,14.96
2019-04-25T05:58:14.821Z,14.97
2019-04-25T05:59:14.841Z,15.02
2019-04-25T06:00:15.149Z,15.08
2019-04-25T06:01:14.887Z,15.19
2019-04-25T06:02:14.905Z,15.33
2019-04-25T06:03:14.926Z,15.33
2019-04-25T06:04:14.945Z,15.50
2019-04-25T06:05:14.967Z,15.47
2019-04-25T06:06:14.990Z,15.65
2019-04-25T06:07:15.008Z,15.67
2019-04-25T06:08:15.033Z,15.67
2019-04-25T06:09:15.052Z,15.75
2019-04-25T06:10:15.080Z,15.80
2019-04-25T06:11:15.094Z,15.83
2019-04-25T06:12:15.115Z,15.88
2019-04-25T06:13:15.138Z,15.91
2019-04-25T06:14:15.157Z,15.98
2019-04-25T06:15:15.179Z,16.03
2019-04-25T06:16:15.200Z,16.00
2019-04-25T06:17:15.244Z,16.05
2019-04-25T06:18:15.243Z,16.16
2019-04-25T06:19:18.525Z,16.08
2019-04-25T06:20:15.285Z,16.08
2019-04-25T06:21:15.308Z,16.17
2019-04-25T06:22:15.329Z,16.16
2019-04-25T06:23:15.415Z,16.22
2019-04-25T06:24:15.425Z,16.28
2019-04-25T06:25:16.367Z,16.29
2019-04-25T06:26:23.049Z,16.39
2019-04-25T06:27:15.491Z,16.31
2019-04-25T06:28:15.485Z,16.46
2019-04-25T06:29:15.481Z,16.50
2019-04-25T06:30:15.789Z,16.58
2019-04-25T06:31:15.524Z,16.68
2019-04-25T06:32:15.544Z,16.84
2019-04-25T06:33:15.630Z,16.95
2019-04-25T06:34:15.587Z,17.01
2019-04-25T06:35:15.611Z,17.09
2019-04-25T06:36:15.634Z,17.31
2019-04-25T06:37:15.656Z,17.53
2019-04-25T06:38:15.678Z,17.71
2019-04-25T06:39:15.701Z,17.94
2019-04-25T06:40:15.724Z,18.15
2019-04-25T06:41:15.747Z,18.36
2019-04-25T06:42:15.771Z,18.63
2019-04-25T06:43:15.791Z,18.88
2019-04-25T06:44:15.815Z,18.97
2019-04-25T06:45:15.846Z,19.24
2019-04-25T06:46:15.858Z,19.27
2019-04-25T06:47:15.892Z,19.35
2019-04-25T06:48:15.908Z,19.59
2019-04-25T06:49:15.930Z,19.59
2019-04-25T06:50:15.954Z,19.77
2019-04-25T06:51:15.988Z,19.77
2019-04-25T06:52:16.002Z,19.89
2019-04-25T06:53:16.025Z,20.00
2019-04-25T06:54:16.050Z,20.10
2019-04-25T06:55:16.077Z,20.12
2019-04-25T06:56:16.100Z,20.24
2019-04-25T06:57:16.126Z,20.15
2019-04-25T06:58:16.151Z,20.24
2019-04-25T06:59:16.173Z,20.26
2019-04-25T07:00:16.194Z,20.22
2019-04-25T07:01:16.221Z,20.37
2019-04-25T07:02:16.241Z,20.29
2019-04-25T07:03:16.268Z,20.32
2019-04-25T07:04:16.290Z,20.55
2019-04-25T07:05:26.428Z,20.78
2019-04-25T07:06:16.368Z,21.04
2019-04-25T07:07:16.369Z,21.25
2019-04-25T07:08:16.388Z,21.48
2019-04-25T07:09:16.415Z,21.66
2019-04-25T07:10:16.444Z,21.84
2019-04-25T07:11:16.465Z,22.08
2019-04-25T07:12:16.494Z,22.22
2019-04-25T07:13:16.518Z,22.31
2019-04-25T07:14:16.546Z,22.47
2019-04-25T07:15:16.570Z,22.46
2019-04-25T07:16:16.595Z,22.37
2019-04-25T07:17:16.622Z,22.38
2019-04-25T07:18:16.649Z,22.40
2019-04-25T07:19:17.624Z,22.59
2019-04-25T07:20:16.699Z,22.62
2019-04-25T07:21:16.725Z,22.68
2019-04-25T07:22:16.753Z,22.78
2019-04-25T07:23:16.784Z,22.98
2019-04-25T07:24:17.566Z,22.93
2019-04-25T07:25:16.832Z,23.07
2019-04-25T07:26:16.862Z,23.21
2019-04-25T07:27:16.887Z,23.21
2019-04-25T07:28:24.118Z,23.37
2019-04-25T07:29:16.940Z,23.39
2019-04-25T07:30:26.862Z,23.36
2019-04-25T07:31:16.994Z,23.45
2019-04-25T07:32:17.021Z,23.52
2019-04-25T07:33:17.048Z,23.59
2019-04-25T07:34:17.075Z,23.64
2019-04-25T07:35:17.101Z,23.73
2019-04-25T07:36:17.131Z,23.73
2019-04-25T07:37:17.157Z,23.81
2019-04-25T07:38:17.184Z,23.91
2019-04-25T07:39:17.231Z,23.88
2019-04-25T07:40:17.244Z,23.94
2019-04-25T07:41:17.351Z,24.06
2019-04-25T07:42:17.337Z,24.04
2019-04-25T07:43:17.377Z,24.11
2019-04-25T07:44:17.519Z,24.21
2019-04-25T07:45:17.430Z,24.13
2019-04-25T07:46:17.406Z,24.11
2019-04-25T07:47:17.434Z,24.19
2019-04-25T07:48:17.469Z,24.16
2019-04-25T07:49:17.491Z,24.14
2019-04-25T07:50:17.518Z,24.09
2019-04-25T07:51:17.547Z,24.14
2019-04-25T07:52:17.575Z,24.09
2019-04-25T07:53:17.605Z,24.22
2019-04-25T07:54:17.635Z,24.16
2019-04-25T07:55:17.661Z,24.19
2019-04-25T07:56:17.690Z,24.22
2019-04-25T07:57:17.718Z,24.25
2019-04-25T07:58:17.749Z,24.22
2019-04-25T07:59:17.776Z,24.22
2019-04-25T08:00:17.805Z,24.22
2019-04-25T08:01:17.835Z,24.21
2019-04-25T08:02:17.864Z,24.16
2019-04-25T08:03:17.960Z,24.19
2019-04-25T08:04:17.922Z,24.16
2019-04-25T08:05:17.950Z,24.21
2019-04-25T08:06:17.982Z,24.11
2019-04-25T08:07:18.009Z,24.13
2019-04-25T08:08:18.039Z,24.06
2019-04-25T08:09:18.067Z,23.96
2019-04-25T08:10:18.100Z,23.81
2019-04-25T08:11:18.126Z,23.69
2019-04-25T08:12:18.152Z,23.56
2019-04-25T08:13:18.179Z,23.36
2019-04-25T08:14:18.206Z,23.20
2019-04-25T08:15:18.245Z,22.99
2019-04-25T08:16:18.261Z,22.91
2019-04-25T08:17:18.289Z,22.86
2019-04-25T08:18:18.315Z,22.67
2019-04-25T08:19:18.340Z,22.63
2019-04-25T08:20:18.368Z,22.59
2019-04-25T08:21:18.395Z,22.46
2019-04-25T08:22:18.422Z,22.30
2019-04-25T08:23:18.446Z,22.25
2019-04-25T08:24:18.471Z,22.19
2019-04-25T08:25:18.499Z,22.12
2019-04-25T08:26:18.523Z,22.00
2019-04-25T08:28:18.573Z,21.78
2019-04-25T08:29:18.599Z,21.70
2019-04-25T08:30:18.628Z,21.59
2019-04-25T08:31:18.652Z,21.58
2019-04-25T08:32:18.677Z,21.53
2019-04-25T08:33:18.697Z,21.40
2019-04-25T08:34:18.722Z,21.32
2019-04-25T08:35:18.744Z,21.23
2019-04-25T08:36:18.771Z,21.19
2019-04-25T08:37:21.050Z,21.23
2019-04-25T08:38:18.820Z,21.08
2019-04-25T08:39:18.846Z,21.03
2019-04-25T08:40:18.869Z,21.04
2019-04-25T08:41:21.476Z,20.98
2019-04-25T08:42:18.915Z,20.93
2019-04-25T08:43:18.940Z,20.80
2019-04-25T08:44:18.963Z,20.83
2019-04-25T08:45:18.989Z,20.75
2019-04-25T08:46:19.013Z,20.63
2019-04-25T08:47:19.038Z,20.63
2019-04-25T08:48:19.061Z,20.52
2019-04-25T08:49:19.083Z,20.49
2019-04-25T08:50:28.775Z,20.36
2019-04-25T08:51:19.129Z,20.39
2019-04-25T08:52:19.169Z,20.39
2019-04-25T08:53:19.240Z,20.36
2019-04-25T08:54:19.239Z,20.34
2019-04-25T08:55:19.295Z,20.33
2019-04-25T08:56:19.302Z,20.32
2019-04-25T08:57:19.297Z,20.37
2019-04-25T08:58:19.313Z,20.39
2019-04-25T08:59:26.843Z,20.29
2019-04-25T09:00:19.341Z,20.24
2019-04-25T09:01:19.367Z,20.33
2019-04-25T09:02:19.385Z,20.29
2019-04-25T09:03:19.410Z,20.37
2019-04-25T09:04:19.438Z,20.33
2019-04-25T09:05:19.459Z,20.36
2019-04-25T09:06:19.483Z,20.44
2019-04-25T09:07:19.504Z,20.37
2019-04-25T09:08:19.526Z,20.32
2019-04-25T09:09:19.552Z,20.37
2019-04-25T09:10:19.573Z,20.44
2019-04-25T09:11:19.598Z,20.48
2019-04-25T09:12:19.621Z,20.50
2019-04-25T09:13:19.642Z,20.58
2019-04-25T09:14:19.666Z,20.53
2019-04-25T09:15:19.690Z,20.46
2019-04-25T09:16:19.711Z,20.55
2019-04-25T09:17:19.733Z,20.68
2019-04-25T09:18:19.759Z,20.68
2019-04-25T09:19:19.783Z,20.60
2019-04-25T09:20:19.804Z,20.63
2019-04-25T09:21:19.830Z,20.82
2019-04-25T09:22:19.851Z,20.80
2019-04-25T09:23:19.876Z,20.82
2019-04-25T09:24:19.899Z,20.82
2019-04-25T09:25:19.925Z,20.88
2019-04-25T09:26:19.945Z,21.01
2019-04-25T09:27:19.970Z,21.01
2019-04-25T09:28:19.992Z,21.08
2019-04-25T09:29:20.136Z,21.14
2019-04-25T09:30:20.040Z,21.20
2019-04-25T09:31:20.064Z,21.22
2019-04-25T09:32:20.095Z,21.26
2019-04-25T09:33:20.109Z,21.33
2019-04-25T09:34:20.133Z,21.37
2019-04-25T09:35:20.262Z,21.38
2019-04-25T09:36:20.180Z,21.47
2019-04-25T09:37:20.209Z,21.50
2019-04-25T09:38:20.235Z,21.54
2019-04-25T09:39:20.255Z,21.53
2019-04-25T09:40:20.276Z,21.60
2019-04-25T09:41:20.304Z,21.60
2019-04-25T09:42:20.325Z,21.70
2019-04-25T09:43:20.350Z,21.70
2019-04-25T09:44:20.373Z,21.77
2019-04-25T09:45:20.399Z,21.84
2019-04-25T09:46:20.422Z,21.85
2019-04-25T09:47:20.447Z,21.91
2019-04-25T09:48:20.471Z,21.94
2019-04-25T09:49:20.495Z,22.00
2019-04-25T09:50:20.521Z,22.06
2019-04-25T09:51:20.544Z,22.07
2019-04-25T09:52:20.570Z,22.08
2019-04-25T09:53:23.560Z,22.19
2019-04-25T09:54:20.615Z,22.21
2019-04-25T09:55:20.640Z,22.25
2019-04-25T09:56:20.665Z,22.31
2019-04-25T09:57:20.689Z,22.26
2019-04-25T09:58:20.713Z,22.34
2019-04-25T09:59:27.198Z,22.37
2019-04-25T10:00:20.763Z,22.34
2019-04-25T10:01:20.789Z,22.43
2019-04-25T10:02:20.810Z,22.46
2019-04-25T10:03:20.836Z,22.41
2019-04-25T10:04:22.877Z,22.56
2019-04-25T10:05:20.886Z,22.55
2019-04-25T10:06:20.912Z,22.62
2019-04-25T10:07:20.937Z,22.67
2019-04-25T10:08:20.960Z,22.68
2019-04-25T10:09:20.988Z,22.80
2019-04-25T10:10:21.015Z,22.77
2019-04-25T10:11:21.040Z,22.92
2019-04-25T10:12:21.147Z,23.06
2019-04-25T10:13:21.146Z,23.23
2019-04-25T10:14:21.141Z,23.21
2019-04-25T10:15:21.210Z,23.40
2019-04-25T10:16:21.220Z,23.52
2019-04-25T10:17:21.204Z,23.56
2019-04-25T10:18:21.239Z,23.70
2019-04-25T10:19:21.261Z,23.85
2019-04-25T10:20:21.293Z,23.96
2019-04-25T10:21:21.313Z,24.11
2019-04-25T10:22:21.342Z,24.34
2019-04-25T10:23:21.370Z,24.51
2019-04-25T10:24:21.399Z,24.66
2019-04-25T10:25:21.428Z,24.85
2019-04-25T10:26:21.459Z,25.09
2019-04-25T10:27:21.490Z,25.26
2019-04-25T10:28:23.215Z,25.51
2019-04-25T10:29:21.553Z,25.68
2019-04-25T10:30:23.783Z,25.95
2019-04-25T10:31:21.617Z,26.13
2019-04-25T10:32:23.646Z,26.33
2019-04-25T10:33:21.682Z,26.59
2019-04-25T10:34:21.713Z,26.97
2019-04-25T10:35:21.748Z,27.23
2019-04-25T10:36:23.256Z,27.45
2019-04-25T10:37:21.816Z,27.72
2019-04-25T10:38:21.848Z,27.97
2019-04-25T10:39:21.953Z,28.25
2019-04-25T10:40:23.417Z,28.45
2019-04-25T10:41:21.957Z,28.74
2019-04-25T10:42:23.752Z,28.97
2019-04-25T10:43:23.874Z,29.37
2019-04-25T10:44:22.063Z,29.57
2019-04-25T10:45:25.458Z,29.76
2019-04-25T10:46:22.137Z,29.96
2019-04-25T10:47:22.175Z,30.21
2019-04-25T10:48:23.926Z,30.39
2019-04-25T10:49:23.543Z,30.43
2019-04-25T10:50:23.721Z,30.88
2019-04-25T10:51:23.864Z,30.93
2019-04-25T10:52:23.335Z,31.08
2019-04-25T10:53:23.468Z,31.29
2019-04-25T10:54:22.436Z,31.33
2019-04-25T10:55:23.371Z,31.39
2019-04-25T10:56:24.164Z,31.54
2019-04-25T10:57:22.553Z,31.69
2019-04-25T10:58:22.592Z,31.90
2019-04-25T10:59:23.619Z,32.15
2019-04-25T11:00:24.051Z,32.24
2019-04-25T11:01:24.337Z,32.42
2019-04-25T11:02:23.607Z,32.59
2019-04-25T11:03:24.171Z,32.75
2019-04-25T11:04:22.825Z,32.86
2019-04-25T11:05:23.958Z,33.12
2019-04-25T11:06:23.307Z,33.32
2019-04-25T11:07:23.467Z,33.58
2019-04-25T11:08:24.374Z,33.85
2019-04-25T11:09:24.178Z,33.95
2019-04-25T11:10:23.595Z,34.29
2019-04-25T11:11:24.106Z,34.37
2019-04-25T11:12:23.500Z,34.48
2019-04-25T11:13:23.183Z,34.73
2019-04-25T11:14:23.895Z,34.83
2019-04-25T11:15:23.445Z,34.85
2019-04-25T11:16:24.214Z,34.88
2019-04-25T11:17:24.245Z,34.89
2019-04-25T11:18:23.887Z,35.15
2019-04-25T11:19:23.900Z,35.42
2019-04-25T11:20:23.466Z,35.54
2019-04-25T11:21:24.287Z,35.72
2019-04-25T11:22:23.975Z,35.91
2019-04-25T11:23:23.590Z,36.00
2019-04-25T11:24:23.829Z,36.11
2019-04-25T11:25:24.034Z,36.09
2019-04-25T11:26:23.711Z,36.22
2019-04-25T11:27:23.970Z,36.18
2019-04-25T11:28:23.793Z,36.14
2019-04-25T11:29:24.076Z,36.24
2019-04-25T11:30:23.876Z,36.45
2019-04-25T11:31:23.918Z,36.57
2019-04-25T11:32:23.964Z,36.66
2019-04-25T11:33:24.684Z,36.60
2019-04-25T11:34:24.043Z,36.53
2019-04-25T11:35:24.225Z,36.44
2019-04-25T11:36:24.975Z,36.50
2019-04-25T11:37:24.164Z,36.44
2019-04-25T11:38:24.208Z,36.57
2019-04-25T11:39:24.250Z,36.75
2019-04-25T11:40:24.291Z,36.89
2019-04-25T11:41:24.379Z,37.06
2019-04-25T11:42:24.372Z,37.09
2019-04-25T11:43:24.415Z,37.21
2019-04-25T11:44:24.592Z,37.36
2019-04-25T11:45:24.499Z,37.54
2019-04-25T11:46:24.539Z,37.47
2019-04-25T11:47:24.581Z,37.41
2019-04-25T11:48:24.629Z,37.44
2019-04-25T11:49:24.678Z,37.61
2019-04-25T11:50:24.708Z,37.72
2019-04-25T11:51:24.751Z,37.60
2019-04-25T11:52:28.121Z,37.75
2019-04-25T11:53:25.008Z,37.90
2019-04-25T11:54:24.875Z,38.00
2019-04-25T11:55:24.923Z,38.05
2019-04-25T11:56:25.015Z,38.10
2019-04-25T11:57:25.029Z,37.98
2019-04-25T11:58:25.104Z,38.07
2019-04-25T11:59:25.086Z,38.07
2019-04-25T12:00:25.127Z,38.09
2019-04-25T12:01:25.169Z,37.88
2019-04-25T12:02:25.211Z,37.79
2019-04-25T12:03:25.255Z,37.54
2019-04-25T12:04:25.296Z,37.61
2019-04-25T12:05:25.337Z,37.64
2019-04-25T12:06:25.379Z,37.61
2019-04-25T12:07:25.423Z,37.71
2019-04-25T12:08:25.460Z,37.80
2019-04-25T12:09:25.503Z,37.75
2019-04-25T12:10:25.547Z,37.63
2019-04-25T12:11:25.587Z,37.63
2019-04-25T12:12:25.629Z,37.76
2019-04-25T12:13:25.673Z,37.83
2019-04-25T12:14:25.715Z,37.91
2019-04-25T12:15:25.754Z,37.88
2019-04-25T12:16:25.797Z,37.94
2019-04-25T12:17:25.836Z,38.16
2019-04-25T12:18:25.879Z,38.13
2019-04-25T12:19:35.010Z,38.09
2019-04-25T12:20:25.961Z,38.05
2019-04-25T12:21:26.004Z,38.12
2019-04-25T12:22:26.057Z,38.12
2019-04-25T12:23:26.088Z,38.12
2019-04-25T12:24:26.130Z,37.97
2019-04-25T12:25:26.172Z,37.98
2019-04-25T12:26:26.411Z,38.01
2019-04-25T12:27:26.253Z,37.88
2019-04-25T12:28:26.295Z,38.05
2019-04-25T12:29:26.344Z,37.94
2019-04-25T12:30:37.255Z,37.95
2019-04-25T12:31:26.419Z,37.95
2019-04-25T12:32:26.465Z,37.97
2019-04-25T12:33:26.505Z,38.09
2019-04-25T12:34:26.546Z,38.02
2019-04-25T12:35:26.585Z,38.02
2019-04-25T12:36:26.626Z,38.13
2019-04-25T12:37:26.691Z,38.29
2019-04-25T12:38:26.709Z,38.32
2019-04-25T12:39:26.751Z,38.36
2019-04-25T12:40:26.791Z,38.44
2019-04-25T12:41:26.833Z,38.39
2019-04-25T12:42:26.959Z,38.50
2019-04-25T12:43:26.957Z,38.35
2019-04-25T12:44:27.025Z,38.47
2019-04-25T12:45:27.026Z,38.34
2019-04-25T12:46:27.042Z,38.41
2019-04-25T12:47:27.082Z,38.42
2019-04-25T12:48:27.124Z,38.34
2019-04-25T12:49:27.163Z,38.42
2019-04-25T12:50:27.210Z,38.27
2019-04-25T12:51:27.248Z,38.34
2019-04-25T12:52:27.288Z,38.34
2019-04-25T12:53:27.331Z,38.47